Oliver Hazard Perry — KOHZ — position and weather

sailwx.info

Track history (hours):
 
Tides and Currents Weather Stations Pressure Air Temp Water Temp Dewpoint Dewpoint Depression Visibility Wind Speed Wind Dir Waves Ship Positions

Oliver Hazard Perry

Owner: Oliver Hazard Perry Rhode Island, Newport, RI. More information available from US FCC via Universal Licensing System and Coast Guard Vessel Documentation Center.

Last reported at 2019-Sep-16 02:16 UTC. Time now 2019-Dec-08 10:04 UTC.
Position N 41°24' W 071°25'.
Warning: this ship's position is months out of date.

; draft 4 m.

Type: Sailing vessel. MMSI: 367658110.

Date/timePositionNaut miles runAvg speedWind from/ knotsBaromVisibWave heightAir tempDewpointWater temp
2019-Sep-16 02:16N 41°24' W 071°25'2 8.1
2019-Sep-16 02:00N 41°22' W 071°26'10 7.6
2019-Sep-16 00:42N 41°18' W 071°38'4 8.0
2019-Sep-16 00:11N 41°17' W 071°44'2 8.2
2019-Sep-15 23:54N 41°16' W 071°47'4 8.0
2019-Sep-15 23:27N 41°15' W 071°51'4 8.2
2019-Sep-15 23:00N 41°15' W 071°56'4 8.8
2019-Sep-15 22:30N 41°14' W 072°02'4 8.2
2019-Sep-15 22:00N 41°17' W 072°05'3 6.6
2019-Sep-15 21:30N 41°21' W 072°05'0 0.4
2019-Sep-15 21:00N 41°21' W 072°05'0 0.0
2019-Sep-15 20:30N 41°21' W 072°05'0 0.0
2019-Sep-15 20:00N 41°21' W 072°05'0 0.0
2019-Sep-15 19:30N 41°21' W 072°05'0 0.0
2019-Sep-15 19:00N 41°21' W 072°05'0 0.0
2019-Sep-15 18:30N 41°21' W 072°05'0 0.0
2019-Sep-15 18:00N 41°21' W 072°05'0 0.0
2019-Sep-15 17:30N 41°21' W 072°05'0 0.0
2019-Sep-15 17:00N 41°21' W 072°05'0 0.0
2019-Sep-15 16:30N 41°21' W 072°05'0 0.0
2019-Sep-15 16:00N 41°21' W 072°05'0 0.0
2019-Sep-15 15:30N 41°21' W 072°05'0 0.0
2019-Sep-15 15:00N 41°21' W 072°05'0 0.0
2019-Sep-15 14:30N 41°21' W 072°05'0 0.0
2019-Sep-15 14:00N 41°21' W 072°05'0 0.0
2019-Sep-15 13:27N 41°21' W 072°05'0 0.0
2019-Sep-15 13:00N 41°21' W 072°05'0 0.0
2019-Sep-15 12:30N 41°21' W 072°05'0 0.0
2019-Sep-15 12:00N 41°21' W 072°05'0 0.0
2019-Sep-15 11:30N 41°21' W 072°05'0 0.0
2019-Sep-15 11:00N 41°21' W 072°05'0 0.0
2019-Sep-15 10:30N 41°21' W 072°05'0 0.0
2019-Sep-15 10:00N 41°21' W 072°05'0 0.0
2019-Sep-15 09:30N 41°21' W 072°05'0 0.0
2019-Sep-15 09:00N 41°21' W 072°05'0 0.0
2019-Sep-15 08:30N 41°21' W 072°05'0 0.0
2019-Sep-15 08:00N 41°21' W 072°05'0 0.0
2019-Sep-15 07:30N 41°21' W 072°05'0 0.0
2019-Sep-15 07:00N 41°21' W 072°05'0 0.0
2019-Sep-15 06:30N 41°21' W 072°05'0 0.0
2019-Sep-15 06:00N 41°21' W 072°05'0 0.0
2019-Sep-15 05:30N 41°21' W 072°05'0 0.0
2019-Sep-15 05:00N 41°21' W 072°05'0 0.0
2019-Sep-15 04:30N 41°21' W 072°05'0 0.0
2019-Sep-15 04:00N 41°21' W 072°05'0 0.0
2019-Sep-15 03:30N 41°21' W 072°05'0 0.0
2019-Sep-15 03:00N 41°21' W 072°05'0 0.0
2019-Sep-15 02:30N 41°21' W 072°05'0 0.0
2019-Sep-15 02:00N 41°21' W 072°05'0 0.0
2019-Sep-15 01:30N 41°21' W 072°05'0 0.0
2019-Sep-15 01:00N 41°21' W 072°05'0 0.0
2019-Sep-15 00:30N 41°21' W 072°05'0 0.0
2019-Sep-15 00:00N 41°21' W 072°05'0 0.0
2019-Sep-14 23:30N 41°21' W 072°05'0 0.0
2019-Sep-14 23:00N 41°21' W 072°05'0 0.0
2019-Sep-14 22:30N 41°21' W 072°05'0 0.0
2019-Sep-14 22:00N 41°21' W 072°05'0 0.0
2019-Sep-14 21:30N 41°21' W 072°05'0 0.0
2019-Sep-14 21:00N 41°21' W 072°05'0 0.0
2019-Sep-14 20:30N 41°21' W 072°05'0 0.0
2019-Sep-14 20:00N 41°21' W 072°05'0 0.0
2019-Sep-14 19:30N 41°21' W 072°05'0 0.0
2019-Sep-14 19:00N 41°21' W 072°05'0 0.0
2019-Sep-14 18:30N 41°21' W 072°05'0 0.0
2019-Sep-14 18:00N 41°21' W 072°05'0 0.0
2019-Sep-14 17:30N 41°21' W 072°05'0 0.0
2019-Sep-14 17:00N 41°21' W 072°05'0 0.0
2019-Sep-14 16:30N 41°21' W 072°05'0 0.0
2019-Sep-14 16:00N 41°21' W 072°05'0 0.0
2019-Sep-14 15:30N 41°21' W 072°05'0 0.0
2019-Sep-14 15:00N 41°21' W 072°05'0 0.0
2019-Sep-14 14:30N 41°21' W 072°05'0 0.0
2019-Sep-14 14:00N 41°21' W 072°05'0 0.0
2019-Sep-14 13:30N 41°21' W 072°05'0 0.0
2019-Sep-14 13:00N 41°21' W 072°05'0 0.0
2019-Sep-14 12:30N 41°21' W 072°05'0 0.0
2019-Sep-14 12:00N 41°21' W 072°05'0 0.0
2019-Sep-14 11:30N 41°21' W 072°05'0 0.0
2019-Sep-14 11:00N 41°21' W 072°05'0 0.0
2019-Sep-14 10:30N 41°21' W 072°05'0 0.0
2019-Sep-14 10:00N 41°21' W 072°05'0 0.0
2019-Sep-14 09:30N 41°21' W 072°05'0 0.0
2019-Sep-14 09:00N 41°21' W 072°05'0 0.0
2019-Sep-14 08:30N 41°21' W 072°05'0 0.0
2019-Sep-14 08:00N 41°21' W 072°05'0 0.0
2019-Sep-14 07:30N 41°21' W 072°05'0 0.0
2019-Sep-14 07:00N 41°21' W 072°05'0 0.0
2019-Sep-14 06:30N 41°21' W 072°05'0 0.0
2019-Sep-14 06:00N 41°21' W 072°05'0 0.0
2019-Sep-14 05:30N 41°21' W 072°05'0 0.0
2019-Sep-14 05:00N 41°21' W 072°05'0 0.0
2019-Sep-14 04:30N 41°21' W 072°05'0 0.0
2019-Sep-14 04:00N 41°21' W 072°05'0 0.0
2019-Sep-14 03:30N 41°21' W 072°05'0 0.0
2019-Sep-14 03:00N 41°21' W 072°05'0 0.0
2019-Sep-14 02:30N 41°21' W 072°05'0 0.0
2019-Sep-14 02:00N 41°21' W 072°05'0 0.0
2019-Sep-14 01:30N 41°21' W 072°05'0 0.0
2019-Sep-14 01:00N 41°21' W 072°05'0 0.0
2019-Sep-14 00:30N 41°21' W 072°05'0 0.0
2019-Sep-14 00:00N 41°21' W 072°05'0 0.0
2019-Sep-13 23:30N 41°21' W 072°05'0 0.0
2019-Sep-13 23:00N 41°21' W 072°05'0 0.0
2019-Sep-13 22:30N 41°21' W 072°05'0 0.0
2019-Sep-13 22:00N 41°21' W 072°05'0 0.0
2019-Sep-13 21:30N 41°21' W 072°05'0 0.0
2019-Sep-13 21:00N 41°21' W 072°05'0 0.0
2019-Sep-13 20:30N 41°21' W 072°05'0 0.0
2019-Sep-13 20:00N 41°21' W 072°05'0 0.0
2019-Sep-13 19:30N 41°21' W 072°05'0 0.0
2019-Sep-13 19:00N 41°21' W 072°05'0 0.0
2019-Sep-13 18:30N 41°21' W 072°05'0 0.0
2019-Sep-13 18:00N 41°21' W 072°05'0 0.0
2019-Sep-13 17:30N 41°21' W 072°05'0 0.0
2019-Sep-13 17:00N 41°21' W 072°05'0 0.0
2019-Sep-13 16:30N 41°21' W 072°05'0 0.0
2019-Sep-13 16:00N 41°21' W 072°05'0 0.0
2019-Sep-13 15:30N 41°21' W 072°05'0 0.0
2019-Sep-13 14:57N 41°21' W 072°05'0 0.0
2019-Sep-13 14:30N 41°21' W 072°05'0 0.0
2019-Sep-13 14:00N 41°21' W 072°05'0 0.0
2019-Sep-13 13:27N 41°21' W 072°05'0 0.0
2019-Sep-13 13:00N 41°21' W 072°05'0 0.0
2019-Sep-13 12:30N 41°21' W 072°05'0 0.0
2019-Sep-13 12:00N 41°21' W 072°05'0 0.0
2019-Sep-13 11:30N 41°21' W 072°05'0 0.0
2019-Sep-13 11:00N 41°21' W 072°05'0 0.0
2019-Sep-13 10:30N 41°21' W 072°05'0 0.0
2019-Sep-13 10:00N 41°21' W 072°05'0 0.0
2019-Sep-13 09:30N 41°21' W 072°05'0 0.0
2019-Sep-13 09:00N 41°21' W 072°05'0 0.0
2019-Sep-13 08:30N 41°21' W 072°05'0 0.0
2019-Sep-13 08:00N 41°21' W 072°05'0 0.0
2019-Sep-13 07:30N 41°21' W 072°05'0 0.0
2019-Sep-13 07:00N 41°21' W 072°05'0 0.0
2019-Sep-13 06:30N 41°21' W 072°05'0 0.0
2019-Sep-13 06:00N 41°21' W 072°05'0 0.0
2019-Sep-13 05:30N 41°21' W 072°05'0 0.0
2019-Sep-13 05:00N 41°21' W 072°05'0 0.0
2019-Sep-13 04:30N 41°21' W 072°05'0 0.0
2019-Sep-13 04:00N 41°21' W 072°05'0 0.0
2019-Sep-13 03:30N 41°21' W 072°05'0 0.0
2019-Sep-13 03:00N 41°21' W 072°05'0 0.0
2019-Sep-13 02:00N 41°21' W 072°05'0 0.0
2019-Sep-13 01:30N 41°21' W 072°05'0 0.0
2019-Sep-13 01:00N 41°21' W 072°05'0 0.0
2019-Sep-13 00:30N 41°21' W 072°05'0 0.0
2019-Sep-13 00:00N 41°21' W 072°05'0 0.0
2019-Sep-12 23:30N 41°21' W 072°05'0 0.0
2019-Sep-12 23:00N 41°21' W 072°05'0 0.0
2019-Sep-12 22:30N 41°21' W 072°05'0 0.0
2019-Sep-12 22:00N 41°21' W 072°05'0 0.0
2019-Sep-12 21:30N 41°21' W 072°05'0 0.0
2019-Sep-12 21:00N 41°21' W 072°05'0 0.0
2019-Sep-12 20:30N 41°21' W 072°05'0 0.0
2019-Sep-12 20:00N 41°21' W 072°05'0 0.0
2019-Sep-12 19:30N 41°21' W 072°05'0 0.0
2019-Sep-12 19:00N 41°21' W 072°05'0 0.4
2019-Sep-12 18:30N 41°21' W 072°05'1 1.2
2019-Sep-12 18:00N 41°21' W 072°05'1 1.8
2019-Sep-12 17:30N 41°20' W 072°05'0 1.0
2019-Sep-12 17:00N 41°21' W 072°05'1 1.1
2019-Sep-12 16:30N 41°21' W 072°05'1 2.4
2019-Sep-12 16:00N 41°20' W 072°05'3 6.8
2019-Sep-12 15:30N 41°17' W 072°04'3 5.9
2019-Sep-12 15:00N 41°14' W 072°02'35 0.7
2019-Sep-10 15:54N 41°29' W 071°20'0 0.0
2019-Sep-10 15:30N 41°29' W 071°20'0 0.0
2019-Sep-10 15:00N 41°29' W 071°20'0 0.0
2019-Sep-10 14:30N 41°29' W 071°20'0 0.0
2019-Sep-10 14:00N 41°29' W 071°20'  
Track history (hours):
 
Tides and Currents Weather Stations Pressure Air Temp Water Temp Dewpoint Dewpoint Depression Visibility Wind Speed Wind Dir Waves Ship Positions

Oliver Hazard Perry

Owner: Oliver Hazard Perry Rhode Island, Newport, RI. More information available from US FCC via Universal Licensing System and Coast Guard Vessel Documentation Center.

Last reported at 2019-Sep-16 02:16 UTC. Time now 2019-Dec-08 10:04 UTC.
Position N 41°24' W 071°25'.
Warning: this ship's position is months out of date.

; draft 4 m.

Type: Sailing vessel. MMSI: 367658110.

Date/timePositionNaut miles runAvg speedWind from/ knotsBaromVisibWave heightAir tempDewpointWater temp
2019-Sep-16 02:16N 41°24' W 071°25'2 8.1
2019-Sep-16 02:00N 41°22' W 071°26'10 7.6
2019-Sep-16 00:42N 41°18' W 071°38'4 8.0
2019-Sep-16 00:11N 41°17' W 071°44'2 8.2
2019-Sep-15 23:54N 41°16' W 071°47'4 8.0
2019-Sep-15 23:27N 41°15' W 071°51'4 8.2
2019-Sep-15 23:00N 41°15' W 071°56'4 8.8
2019-Sep-15 22:30N 41°14' W 072°02'4 8.2
2019-Sep-15 22:00N 41°17' W 072°05'3 6.6
2019-Sep-15 21:30N 41°21' W 072°05'0 0.4
2019-Sep-15 21:00N 41°21' W 072°05'0 0.0
2019-Sep-15 20:30N 41°21' W 072°05'0 0.0
2019-Sep-15 20:00N 41°21' W 072°05'0 0.0
2019-Sep-15 19:30N 41°21' W 072°05'0 0.0
2019-Sep-15 19:00N 41°21' W 072°05'0 0.0
2019-Sep-15 18:30N 41°21' W 072°05'0 0.0
2019-Sep-15 18:00N 41°21' W 072°05'0 0.0
2019-Sep-15 17:30N 41°21' W 072°05'0 0.0
2019-Sep-15 17:00N 41°21' W 072°05'0 0.0
2019-Sep-15 16:30N 41°21' W 072°05'0 0.0
2019-Sep-15 16:00N 41°21' W 072°05'0 0.0
2019-Sep-15 15:30N 41°21' W 072°05'0 0.0
2019-Sep-15 15:00N 41°21' W 072°05'0 0.0
2019-Sep-15 14:30N 41°21' W 072°05'0 0.0
2019-Sep-15 14:00N 41°21' W 072°05'0 0.0
2019-Sep-15 13:27N 41°21' W 072°05'0 0.0
2019-Sep-15 13:00N 41°21' W 072°05'0 0.0
2019-Sep-15 12:30N 41°21' W 072°05'0 0.0
2019-Sep-15 12:00N 41°21' W 072°05'0 0.0
2019-Sep-15 11:30N 41°21' W 072°05'0 0.0
2019-Sep-15 11:00N 41°21' W 072°05'0 0.0
2019-Sep-15 10:30N 41°21' W 072°05'0 0.0
2019-Sep-15 10:00N 41°21' W 072°05'0 0.0
2019-Sep-15 09:30N 41°21' W 072°05'0 0.0
2019-Sep-15 09:00N 41°21' W 072°05'0 0.0
2019-Sep-15 08:30N 41°21' W 072°05'0 0.0
2019-Sep-15 08:00N 41°21' W 072°05'0 0.0
2019-Sep-15 07:30N 41°21' W 072°05'0 0.0
2019-Sep-15 07:00N 41°21' W 072°05'0 0.0
2019-Sep-15 06:30N 41°21' W 072°05'0 0.0
2019-Sep-15 06:00N 41°21' W 072°05'0 0.0
2019-Sep-15 05:30N 41°21' W 072°05'0 0.0
2019-Sep-15 05:00N 41°21' W 072°05'0 0.0
2019-Sep-15 04:30N 41°21' W 072°05'0 0.0
2019-Sep-15 04:00N 41°21' W 072°05'0 0.0
2019-Sep-15 03:30N 41°21' W 072°05'0 0.0
2019-Sep-15 03:00N 41°21' W 072°05'0 0.0
2019-Sep-15 02:30N 41°21' W 072°05'0 0.0
2019-Sep-15 02:00N 41°21' W 072°05'0 0.0
2019-Sep-15 01:30N 41°21' W 072°05'0 0.0
2019-Sep-15 01:00N 41°21' W 072°05'0 0.0
2019-Sep-15 00:30N 41°21' W 072°05'0 0.0
2019-Sep-15 00:00N 41°21' W 072°05'0 0.0
2019-Sep-14 23:30N 41°21' W 072°05'0 0.0
2019-Sep-14 23:00N 41°21' W 072°05'0 0.0
2019-Sep-14 22:30N 41°21' W 072°05'0 0.0
2019-Sep-14 22:00N 41°21' W 072°05'0 0.0
2019-Sep-14 21:30N 41°21' W 072°05'0 0.0
2019-Sep-14 21:00N 41°21' W 072°05'0 0.0
2019-Sep-14 20:30N 41°21' W 072°05'0 0.0
2019-Sep-14 20:00N 41°21' W 072°05'0 0.0
2019-Sep-14 19:30N 41°21' W 072°05'0 0.0
2019-Sep-14 19:00N 41°21' W 072°05'0 0.0
2019-Sep-14 18:30N 41°21' W 072°05'0 0.0
2019-Sep-14 18:00N 41°21' W 072°05'0 0.0
2019-Sep-14 17:30N 41°21' W 072°05'0 0.0
2019-Sep-14 17:00N 41°21' W 072°05'0 0.0
2019-Sep-14 16:30N 41°21' W 072°05'0 0.0
2019-Sep-14 16:00N 41°21' W 072°05'0 0.0
2019-Sep-14 15:30N 41°21' W 072°05'0 0.0
2019-Sep-14 15:00N 41°21' W 072°05'0 0.0
2019-Sep-14 14:30N 41°21' W 072°05'0 0.0
2019-Sep-14 14:00N 41°21' W 072°05'0 0.0
2019-Sep-14 13:30N 41°21' W 072°05'0 0.0
2019-Sep-14 13:00N 41°21' W 072°05'0 0.0
2019-Sep-14 12:30N 41°21' W 072°05'0 0.0
2019-Sep-14 12:00N 41°21' W 072°05'0 0.0
2019-Sep-14 11:30N 41°21' W 072°05'0 0.0
2019-Sep-14 11:00N 41°21' W 072°05'0 0.0
2019-Sep-14 10:30N 41°21' W 072°05'0 0.0
2019-Sep-14 10:00N 41°21' W 072°05'0 0.0
2019-Sep-14 09:30N 41°21' W 072°05'0 0.0
2019-Sep-14 09:00N 41°21' W 072°05'0 0.0
2019-Sep-14 08:30N 41°21' W 072°05'0 0.0
2019-Sep-14 08:00N 41°21' W 072°05'0 0.0
2019-Sep-14 07:30N 41°21' W 072°05'0 0.0
2019-Sep-14 07:00N 41°21' W 072°05'0 0.0
2019-Sep-14 06:30N 41°21' W 072°05'0 0.0
2019-Sep-14 06:00N 41°21' W 072°05'0 0.0
2019-Sep-14 05:30N 41°21' W 072°05'0 0.0
2019-Sep-14 05:00N 41°21' W 072°05'0 0.0
2019-Sep-14 04:30N 41°21' W 072°05'0 0.0
2019-Sep-14 04:00N 41°21' W 072°05'0 0.0
2019-Sep-14 03:30N 41°21' W 072°05'0 0.0
2019-Sep-14 03:00N 41°21' W 072°05'0 0.0
2019-Sep-14 02:30N 41°21' W 072°05'0 0.0
2019-Sep-14 02:00N 41°21' W 072°05'0 0.0
2019-Sep-14 01:30N 41°21' W 072°05'0 0.0
2019-Sep-14 01:00N 41°21' W 072°05'0 0.0
2019-Sep-14 00:30N 41°21' W 072°05'0 0.0
2019-Sep-14 00:00N 41°21' W 072°05'0 0.0
2019-Sep-13 23:30N 41°21' W 072°05'0 0.0
2019-Sep-13 23:00N 41°21' W 072°05'0 0.0
2019-Sep-13 22:30N 41°21' W 072°05'0 0.0
2019-Sep-13 22:00N 41°21' W 072°05'0 0.0
2019-Sep-13 21:30N 41°21' W 072°05'0 0.0
2019-Sep-13 21:00N 41°21' W 072°05'0 0.0
2019-Sep-13 20:30N 41°21' W 072°05'0 0.0
2019-Sep-13 20:00N 41°21' W 072°05'0 0.0
2019-Sep-13 19:30N 41°21' W 072°05'0 0.0
2019-Sep-13 19:00N 41°21' W 072°05'0 0.0
2019-Sep-13 18:30N 41°21' W 072°05'0 0.0
2019-Sep-13 18:00N 41°21' W 072°05'0 0.0
2019-Sep-13 17:30N 41°21' W 072°05'0 0.0
2019-Sep-13 17:00N 41°21' W 072°05'0 0.0
2019-Sep-13 16:30N 41°21' W 072°05'0 0.0
2019-Sep-13 16:00N 41°21' W 072°05'0 0.0
2019-Sep-13 15:30N 41°21' W 072°05'0 0.0
2019-Sep-13 14:57N 41°21' W 072°05'0 0.0
2019-Sep-13 14:30N 41°21' W 072°05'0 0.0
2019-Sep-13 14:00N 41°21' W 072°05'0 0.0
2019-Sep-13 13:27N 41°21' W 072°05'0 0.0
2019-Sep-13 13:00N 41°21' W 072°05'0 0.0
2019-Sep-13 12:30N 41°21' W 072°05'0 0.0
2019-Sep-13 12:00N 41°21' W 072°05'0 0.0
2019-Sep-13 11:30N 41°21' W 072°05'0 0.0
2019-Sep-13 11:00N 41°21' W 072°05'0 0.0
2019-Sep-13 10:30N 41°21' W 072°05'0 0.0
2019-Sep-13 10:00N 41°21' W 072°05'0 0.0
2019-Sep-13 09:30N 41°21' W 072°05'0 0.0
2019-Sep-13 09:00N 41°21' W 072°05'0 0.0
2019-Sep-13 08:30N 41°21' W 072°05'0 0.0
2019-Sep-13 08:00N 41°21' W 072°05'0 0.0
2019-Sep-13 07:30N 41°21' W 072°05'0 0.0
2019-Sep-13 07:00N 41°21' W 072°05'0 0.0
2019-Sep-13 06:30N 41°21' W 072°05'0 0.0
2019-Sep-13 06:00N 41°21' W 072°05'0 0.0
2019-Sep-13 05:30N 41°21' W 072°05'0 0.0
2019-Sep-13 05:00N 41°21' W 072°05'0 0.0
2019-Sep-13 04:30N 41°21' W 072°05'0 0.0
2019-Sep-13 04:00N 41°21' W 072°05'0 0.0
2019-Sep-13 03:30N 41°21' W 072°05'0 0.0
2019-Sep-13 03:00N 41°21' W 072°05'0 0.0
2019-Sep-13 02:00N 41°21' W 072°05'0 0.0
2019-Sep-13 01:30N 41°21' W 072°05'0 0.0
2019-Sep-13 01:00N 41°21' W 072°05'0 0.0
2019-Sep-13 00:30N 41°21' W 072°05'0 0.0
2019-Sep-13 00:00N 41°21' W 072°05'0 0.0
2019-Sep-12 23:30N 41°21' W 072°05'0 0.0
2019-Sep-12 23:00N 41°21' W 072°05'0 0.0
2019-Sep-12 22:30N 41°21' W 072°05'0 0.0
2019-Sep-12 22:00N 41°21' W 072°05'0 0.0
2019-Sep-12 21:30N 41°21' W 072°05'0 0.0
2019-Sep-12 21:00N 41°21' W 072°05'0 0.0
2019-Sep-12 20:30N 41°21' W 072°05'0 0.0
2019-Sep-12 20:00N 41°21' W 072°05'0 0.0
2019-Sep-12 19:30N 41°21' W 072°05'0 0.0
2019-Sep-12 19:00N 41°21' W 072°05'0 0.4
2019-Sep-12 18:30N 41°21' W 072°05'1 1.2
2019-Sep-12 18:00N 41°21' W 072°05'1 1.8
2019-Sep-12 17:30N 41°20' W 072°05'0 1.0
2019-Sep-12 17:00N 41°21' W 072°05'1 1.1
2019-Sep-12 16:30N 41°21' W 072°05'1 2.4
2019-Sep-12 16:00N 41°20' W 072°05'3 6.8
2019-Sep-12 15:30N 41°17' W 072°04'3 5.9
2019-Sep-12 15:00N 41°14' W 072°02'35 0.7
2019-Sep-10 15:54N 41°29' W 071°20'0 0.0
2019-Sep-10 15:30N 41°29' W 071°20'0 0.0
2019-Sep-10 15:00N 41°29' W 071°20'0 0.0
2019-Sep-10 14:30N 41°29' W 071°20'0 0.0
2019-Sep-10 14:00N 41°29' W 071°20'  

Dump ship's entire track history